createdAt,value
2024-04-25T00:01:43.917Z,21.00
2024-04-25T00:04:12.321Z,21.00
2024-04-25T00:06:39.510Z,21.00
2024-04-25T00:09:06.674Z,21.00
2024-04-25T00:11:33.909Z,21.00
2024-04-25T00:14:02.966Z,21.00
2024-04-25T00:16:32.993Z,21.00
2024-04-25T00:19:00.361Z,21.00
2024-04-25T00:21:27.651Z,21.00
2024-04-25T00:23:54.846Z,21.00
2024-04-25T00:26:22.512Z,21.10
2024-04-25T00:28:49.878Z,21.00
2024-04-25T00:31:17.036Z,21.00
2024-04-25T00:33:46.995Z,21.00
2024-04-25T00:36:14.415Z,21.00
2024-04-25T00:38:41.729Z,21.00
2024-04-25T00:41:08.931Z,21.00
2024-04-25T00:43:36.145Z,21.00
2024-04-25T00:46:03.489Z,21.00
2024-04-25T00:48:32.631Z,21.00
2024-04-25T00:51:05.301Z,21.00
2024-04-25T00:53:32.837Z,21.10
2024-04-25T00:56:01.999Z,21.00
2024-04-25T00:58:31.767Z,21.00
2024-04-25T01:01:00.377Z,21.10
2024-04-25T01:03:28.573Z,21.00
2024-04-25T01:05:57.538Z,21.00
2024-04-25T01:08:29.300Z,21.00
2024-04-25T01:10:56.610Z,21.00
2024-04-25T01:13:23.863Z,21.00
2024-04-25T01:15:51.695Z,21.00
2024-04-25T01:18:19.795Z,21.00
2024-04-25T01:20:47.050Z,21.00
2024-04-25T01:23:16.679Z,21.00
2024-04-25T01:25:47.256Z,21.00
2024-04-25T01:28:16.975Z,21.00
2024-04-25T01:30:46.022Z,21.00
2024-04-25T01:33:15.133Z,21.00
2024-04-25T01:35:44.756Z,21.00
2024-04-25T01:38:12.408Z,21.00
2024-04-25T01:40:39.550Z,21.10
2024-04-25T01:43:09.885Z,21.10
2024-04-25T01:45:37.008Z,21.00
2024-04-25T01:48:04.919Z,21.10
2024-04-25T01:50:32.258Z,21.00
2024-04-25T01:52:59.539Z,21.00
2024-04-25T01:55:26.800Z,21.00
2024-04-25T01:57:54.568Z,21.00
2024-04-25T02:00:24.607Z,21.00
2024-04-25T02:02:51.823Z,21.00
2024-04-25T02:05:19.089Z,21.00
2024-04-25T02:07:46.292Z,21.00
2024-04-25T02:10:13.614Z,21.00
2024-04-25T02:12:41.021Z,21.00
2024-04-25T02:15:08.488Z,21.00
2024-04-25T02:17:41.001Z,21.00
2024-04-25T02:20:27.836Z,21.00
2024-04-25T02:23:14.897Z,21.00
2024-04-25T02:25:42.098Z,21.00
2024-04-25T02:28:09.313Z,21.00
2024-04-25T02:30:36.507Z,21.00
2024-04-25T02:33:06.540Z,21.00
2024-04-25T02:35:33.795Z,21.10
2024-04-25T02:38:01.183Z,21.00
2024-04-25T02:40:28.353Z,21.00
2024-04-25T02:42:55.683Z,21.00
2024-04-25T02:45:22.822Z,21.00
2024-04-25T02:47:50.111Z,21.00
2024-04-25T02:50:20.112Z,21.00
2024-04-25T02:52:47.426Z,21.00
2024-04-25T02:55:15.007Z,21.00
2024-04-25T02:57:42.213Z,20.80
2024-04-25T03:00:10.945Z,21.00
2024-04-25T03:02:38.113Z,21.00
2024-04-25T03:05:05.954Z,21.00
2024-04-25T03:07:36.154Z,21.00
2024-04-25T03:10:03.724Z,21.00
2024-04-25T03:12:31.053Z,21.00
2024-04-25T03:14:58.699Z,21.00
2024-04-25T03:17:26.280Z,21.00
2024-04-25T03:19:53.441Z,21.00
2024-04-25T03:22:20.592Z,21.00
2024-04-25T03:24:50.631Z,21.00
2024-04-25T03:27:17.833Z,21.00
2024-04-25T03:29:45.019Z,21.00
2024-04-25T03:32:12.285Z,21.00
2024-04-25T03:34:39.503Z,21.00
2024-04-25T03:37:06.606Z,21.00
2024-04-25T03:39:33.774Z,21.00
2024-04-25T03:42:03.939Z,21.00
2024-04-25T03:44:31.181Z,21.00
2024-04-25T03:47:00.219Z,21.00
2024-04-25T03:49:27.699Z,21.00
2024-04-25T03:51:54.896Z,21.00
2024-04-25T03:54:22.076Z,21.00
2024-04-25T03:56:49.227Z,21.00
2024-04-25T03:59:19.464Z,20.90
2024-04-25T04:01:46.814Z,20.90
2024-04-25T04:04:14.145Z,21.00
2024-04-25T04:06:41.534Z,21.00
2024-04-25T04:09:08.903Z,21.00
2024-04-25T04:11:38.344Z,21.00
2024-04-25T04:14:05.626Z,21.00
2024-04-25T04:16:35.403Z,21.00
2024-04-25T04:19:02.528Z,21.00
2024-04-25T04:21:29.849Z,21.00
2024-04-25T04:23:57.098Z,20.90
2024-04-25T04:26:24.575Z,21.00
2024-04-25T04:28:51.756Z,20.90
2024-04-25T04:31:19.162Z,21.00
2024-04-25T04:33:49.213Z,21.00
2024-04-25T04:36:16.535Z,21.00
2024-04-25T04:38:43.838Z,21.00
2024-04-25T04:41:11.137Z,20.90
2024-04-25T04:43:40.695Z,21.00
2024-04-25T04:46:07.945Z,20.90
2024-04-25T04:48:35.698Z,20.90
2024-04-25T04:51:05.746Z,20.90
2024-04-25T04:53:33.199Z,20.90
2024-04-25T04:56:00.391Z,21.00
2024-04-25T04:58:27.572Z,20.90
2024-04-25T05:00:54.781Z,21.00
2024-04-25T05:03:22.584Z,20.90
2024-04-25T05:05:51.648Z,21.00
2024-04-25T05:08:22.068Z,21.00
2024-04-25T05:10:49.288Z,21.00
2024-04-25T05:13:16.667Z,20.90
2024-04-25T05:15:43.963Z,20.90
2024-04-25T05:18:11.388Z,20.90
2024-04-25T05:20:38.627Z,21.00
2024-04-25T05:23:05.984Z,21.00
2024-04-25T05:25:35.863Z,21.00
2024-04-25T05:28:03.351Z,21.00
2024-04-25T05:30:30.481Z,21.00
2024-04-25T05:32:57.682Z,21.00
2024-04-25T05:35:25.485Z,21.00
2024-04-25T05:37:53.064Z,21.00
2024-04-25T05:40:20.404Z,21.00
2024-04-25T05:42:50.235Z,21.00
2024-04-25T05:45:17.464Z,21.00
2024-04-25T05:47:44.887Z,21.00
2024-04-25T05:50:12.188Z,21.10
2024-04-25T05:52:39.352Z,21.10
2024-04-25T05:55:08.520Z,21.10
2024-04-25T05:57:35.862Z,21.00
2024-04-25T06:00:07.187Z,21.00
2024-04-25T06:02:34.486Z,21.10
2024-04-25T06:05:02.515Z,21.00
2024-04-25T06:07:29.740Z,21.10
2024-04-25T06:09:57.080Z,21.10
2024-04-25T06:12:24.699Z,21.20
2024-04-25T06:14:51.959Z,21.20
2024-04-25T06:17:22.345Z,21.20
2024-04-25T06:19:49.756Z,21.20
2024-04-25T06:22:16.954Z,21.10
2024-04-25T06:24:44.304Z,21.20
2024-04-25T06:27:11.461Z,21.20
2024-04-25T06:29:38.938Z,21.20
2024-04-25T06:32:06.501Z,21.20
2024-04-25T06:34:36.337Z,21.20
2024-04-25T06:37:06.187Z,21.20
2024-04-25T06:39:34.184Z,21.20
2024-04-25T06:42:02.371Z,21.20
2024-04-25T06:44:34.939Z,21.20
2024-04-25T06:47:07.848Z,21.20
2024-04-25T06:49:37.739Z,21.20
2024-04-25T06:52:05.269Z,21.20
2024-04-25T06:54:33.491Z,21.20
2024-04-25T06:57:00.627Z,21.20
2024-04-25T06:59:28.938Z,21.20
2024-04-25T07:01:56.348Z,21.20
2024-04-25T07:04:24.023Z,21.20
2024-04-25T07:06:53.888Z,21.20
2024-04-25T07:09:21.194Z,21.20
2024-04-25T07:11:48.367Z,21.20
2024-04-25T07:14:16.016Z,21.20
2024-04-25T07:16:43.251Z,21.20
2024-04-25T07:19:11.160Z,21.20
2024-04-25T07:21:38.431Z,21.20
2024-04-25T07:24:08.291Z,21.20
2024-04-25T07:26:35.529Z,21.30
2024-04-25T07:29:02.682Z,21.30
2024-04-25T07:31:29.902Z,21.40
2024-04-25T07:33:57.143Z,21.40
2024-04-25T07:36:24.362Z,21.50
2024-04-25T07:38:51.990Z,21.50
2024-04-25T07:41:22.060Z,21.50
2024-04-25T07:43:49.214Z,21.50
2024-04-25T07:46:16.653Z,21.60
2024-04-25T07:48:46.213Z,21.60
2024-04-25T07:51:13.547Z,21.70
2024-04-25T07:53:40.901Z,21.70
2024-04-25T07:56:08.386Z,21.70
2024-04-25T07:58:38.208Z,21.80
2024-04-25T08:01:05.586Z,21.80
2024-04-25T08:03:33.008Z,21.70
2024-04-25T08:06:00.492Z,21.80
2024-04-25T08:08:28.076Z,21.80
2024-04-25T08:10:55.425Z,21.80
2024-04-25T08:13:23.415Z,21.80
2024-04-25T08:15:53.318Z,21.90
2024-04-25T08:18:20.508Z,21.80
2024-04-25T08:20:47.824Z,21.90
2024-04-25T08:23:15.003Z,21.90
2024-04-25T08:25:43.138Z,21.90
2024-04-25T08:28:10.467Z,21.80
2024-04-25T08:30:37.846Z,21.80
2024-04-25T08:33:09.793Z,21.80
2024-04-25T08:35:37.853Z,21.80
2024-04-25T08:38:05.270Z,21.90
2024-04-25T08:40:34.219Z,22.00
2024-04-25T08:43:03.384Z,22.00
2024-04-25T08:45:34.694Z,22.00
2024-04-25T08:48:02.751Z,22.00
2024-04-25T08:50:34.343Z,22.00
2024-04-25T08:53:03.581Z,21.90
2024-04-25T08:55:31.635Z,21.90
2024-04-25T08:58:00.256Z,21.80
2024-04-25T09:00:27.883Z,21.80
2024-04-25T09:02:58.637Z,21.80
2024-04-25T09:05:27.438Z,21.90
2024-04-25T09:08:00.530Z,21.90
2024-04-25T09:10:38.544Z,21.90
2024-04-25T09:13:05.941Z,21.80
2024-04-25T09:15:33.138Z,21.70
2024-04-25T09:18:01.073Z,21.60
2024-04-25T09:20:28.991Z,21.50
2024-04-25T09:22:56.400Z,21.50
2024-04-25T09:25:26.424Z,21.40
2024-04-25T09:27:53.847Z,21.30
2024-04-25T09:30:24.928Z,21.30
2024-04-25T09:32:52.251Z,21.30
2024-04-25T09:35:19.670Z,21.20
2024-04-25T09:37:47.013Z,21.20
2024-04-25T09:40:14.163Z,21.30
2024-04-25T09:42:45.060Z,21.30
2024-04-25T09:45:15.232Z,21.30
2024-04-25T09:47:46.908Z,21.20
2024-04-25T09:50:18.877Z,21.20
2024-04-25T09:52:54.798Z,21.20
2024-04-25T09:55:27.229Z,21.20
2024-04-25T09:58:00.643Z,21.20
2024-04-25T10:00:28.361Z,21.20
2024-04-25T10:02:57.545Z,21.10
2024-04-25T10:05:24.883Z,21.00
2024-04-25T10:07:53.067Z,20.90
2024-04-25T10:10:20.532Z,20.60
2024-04-25T10:12:52.877Z,20.90
2024-04-25T10:15:29.639Z,20.90
2024-04-25T10:17:57.537Z,20.90
2024-04-25T10:20:25.252Z,21.00
2024-04-25T10:23:00.440Z,21.00
2024-04-25T10:25:28.105Z,21.10
2024-04-25T10:27:59.620Z,21.10
2024-04-25T10:30:29.683Z,21.10
2024-04-25T10:32:57.657Z,21.10
2024-04-25T10:35:25.410Z,21.10
2024-04-25T10:37:54.018Z,21.10
2024-04-25T10:40:22.034Z,21.10
2024-04-25T10:43:01.440Z,21.20
2024-04-25T10:45:35.070Z,21.20
2024-04-25T10:48:02.477Z,21.30
2024-04-25T10:50:31.183Z,21.30
2024-04-25T10:52:58.583Z,21.20
2024-04-25T10:55:25.858Z,21.10
2024-04-25T10:57:53.719Z,21.10
2024-04-25T11:00:21.108Z,21.00
2024-04-25T11:02:53.564Z,21.00
2024-04-25T11:05:20.813Z,21.00
2024-04-25T11:07:48.538Z,20.90
2024-04-25T11:10:17.315Z,20.90
2024-04-25T11:12:45.728Z,20.70
2024-04-25T11:15:17.419Z,20.60
2024-04-25T11:17:56.158Z,20.50
2024-04-25T11:20:34.469Z,20.50
2024-04-25T11:23:10.016Z,20.60
2024-04-25T11:25:37.299Z,20.60
2024-04-25T11:28:05.039Z,20.60
2024-04-25T11:30:32.897Z,20.60
2024-04-25T11:33:02.637Z,20.70
2024-04-25T11:35:31.038Z,20.70
2024-04-25T11:38:00.879Z,20.70
2024-04-25T11:40:32.655Z,20.70
2024-04-25T11:43:00.247Z,20.60
2024-04-25T11:45:31.389Z,20.60
2024-04-25T11:48:00.362Z,20.60
2024-04-25T11:50:27.630Z,20.60
2024-04-25T11:52:55.005Z,20.50
2024-04-25T11:55:24.776Z,20.50
2024-04-25T11:57:52.064Z,20.40
2024-04-25T12:00:19.476Z,20.40
2024-04-25T12:02:47.945Z,20.40
2024-04-25T12:05:17.293Z,20.40
2024-04-25T12:07:45.770Z,20.50
2024-04-25T12:10:12.925Z,20.50
2024-04-25T12:12:42.803Z,20.50
2024-04-25T12:15:10.215Z,20.60
2024-04-25T12:17:37.785Z,20.70
2024-04-25T12:20:06.306Z,20.70
2024-04-25T12:22:34.313Z,20.70
2024-04-25T12:25:01.782Z,20.80
2024-04-25T12:27:29.022Z,20.80
2024-04-25T12:29:58.816Z,20.80
2024-04-25T12:32:26.028Z,20.90
2024-04-25T12:34:53.472Z,20.90
2024-04-25T12:37:20.586Z,20.90
2024-04-25T12:39:47.910Z,20.90
2024-04-25T12:42:15.212Z,20.80
2024-04-25T12:44:42.555Z,20.80
2024-04-25T12:47:15.337Z,20.70
2024-04-25T12:49:42.751Z,20.80
2024-04-25T12:52:11.341Z,20.80
2024-04-25T12:54:39.673Z,20.80
2024-04-25T12:57:06.949Z,20.80
2024-04-25T12:59:34.742Z,20.80
2024-04-25T13:02:01.979Z,20.90
2024-04-25T13:04:31.801Z,21.00
2024-04-25T13:06:59.240Z,21.00
2024-04-25T13:09:29.127Z,20.90
2024-04-25T13:11:57.164Z,20.90
2024-04-25T13:14:24.528Z,20.90
2024-04-25T13:16:51.747Z,21.00
2024-04-25T13:19:19.174Z,20.90
2024-04-25T13:21:49.824Z,20.90
2024-04-25T13:24:16.997Z,20.90
2024-04-25T13:26:44.203Z,20.80
2024-04-25T13:29:11.488Z,20.80
2024-04-25T13:31:38.710Z,20.80
2024-04-25T13:34:05.968Z,20.80
2024-04-25T13:36:33.285Z,20.80
2024-04-25T13:39:03.093Z,20.70
2024-04-25T13:41:30.989Z,20.70
2024-04-25T13:43:58.225Z,20.70
2024-04-25T13:46:25.519Z,20.70
2024-04-25T13:48:54.616Z,20.80
2024-04-25T13:51:22.080Z,20.80
2024-04-25T13:53:49.459Z,20.90
2024-04-25T13:56:19.661Z,20.90
2024-04-25T13:58:50.442Z,20.90
2024-04-25T14:01:18.040Z,21.00
2024-04-25T14:03:45.495Z,20.90
2024-04-25T14:06:12.976Z,20.80
2024-04-25T14:08:40.245Z,20.70
2024-04-25T14:11:12.456Z,20.60
2024-04-25T14:13:42.506Z,20.60
2024-04-25T14:16:13.416Z,20.60
2024-04-25T14:18:40.765Z,20.70
2024-04-25T14:21:07.943Z,20.80
2024-04-25T14:23:35.293Z,20.90
2024-04-25T14:26:21.060Z,20.90
2024-04-25T14:28:54.131Z,20.90
2024-04-25T14:31:21.517Z,20.80
2024-04-25T14:33:49.214Z,20.70
2024-04-25T14:36:18.025Z,20.80
2024-04-25T14:38:45.707Z,20.90
2024-04-25T14:41:15.900Z,21.10
2024-04-25T14:43:45.683Z,21.10
2024-04-25T14:46:17.181Z,21.20
2024-04-25T14:48:44.598Z,21.20
2024-04-25T14:51:11.801Z,21.20
2024-04-25T14:53:39.205Z,21.30
2024-04-25T14:56:07.183Z,21.30
2024-04-25T14:58:34.378Z,21.40
2024-04-25T15:01:01.522Z,21.40
2024-04-25T15:03:31.426Z,21.40
2024-04-25T15:05:58.636Z,21.40
2024-04-25T15:08:25.902Z,21.40
2024-04-25T15:10:53.381Z,21.50
2024-04-25T15:13:21.499Z,21.50
2024-04-25T15:15:49.412Z,21.50
2024-04-25T15:18:17.836Z,21.60
2024-04-25T15:20:47.968Z,21.60
2024-04-25T15:23:15.758Z,21.80
2024-04-25T15:25:43.006Z,21.90
2024-04-25T15:28:11.311Z,22.00
2024-04-25T15:30:40.131Z,22.00
2024-04-25T15:33:07.687Z,22.00
2024-04-25T15:35:35.188Z,21.90
2024-04-25T15:38:05.378Z,22.00
2024-04-25T15:40:32.716Z,21.90
2024-04-25T15:43:00.059Z,21.90
2024-04-25T15:45:28.332Z,21.90
2024-04-25T15:47:55.760Z,21.90
2024-04-25T15:50:23.356Z,22.00
2024-04-25T15:52:50.550Z,21.90
2024-04-25T15:55:20.451Z,22.00
2024-04-25T15:57:47.718Z,22.00
2024-04-25T16:00:15.400Z,21.90
2024-04-25T16:02:43.176Z,21.90
2024-04-25T16:05:10.494Z,21.90
2024-04-25T16:07:38.355Z,21.80
2024-04-25T16:10:06.242Z,21.80
2024-04-25T16:12:36.464Z,21.80
2024-04-25T16:15:04.028Z,21.90
2024-04-25T16:17:31.385Z,21.90
2024-04-25T16:19:58.584Z,21.90
2024-04-25T16:22:25.810Z,21.90
2024-04-25T16:24:53.243Z,21.90
2024-04-25T16:27:20.458Z,21.90
2024-04-25T16:29:50.444Z,21.90
2024-04-25T16:32:18.037Z,21.80
2024-04-25T16:34:45.186Z,21.90
2024-04-25T16:37:12.424Z,21.90
2024-04-25T16:39:39.669Z,21.90
2024-04-25T16:42:06.944Z,21.90
2024-04-25T16:44:34.400Z,21.90
2024-04-25T16:47:06.546Z,22.00
2024-04-25T16:49:33.966Z,22.00
2024-04-25T16:52:01.235Z,21.90
2024-04-25T16:54:31.133Z,21.90
2024-04-25T16:56:58.389Z,21.90
2024-04-25T16:59:25.737Z,21.90
2024-04-25T17:01:53.089Z,21.90
2024-04-25T17:04:23.143Z,22.00
2024-04-25T17:06:53.243Z,22.00
2024-04-25T17:09:20.580Z,22.00
2024-04-25T17:11:48.472Z,22.00
2024-04-25T17:14:16.108Z,21.90
2024-04-25T17:16:43.335Z,21.90
2024-04-25T17:19:10.644Z,21.90
2024-04-25T17:21:42.965Z,21.90
2024-04-25T17:24:10.484Z,21.90
2024-04-25T17:26:41.435Z,21.90
2024-04-25T17:29:09.125Z,21.90
2024-04-25T17:31:38.299Z,22.00
2024-04-25T17:34:05.977Z,21.90
2024-04-25T17:36:33.758Z,21.90
2024-04-25T17:39:05.738Z,21.90
2024-04-25T17:41:33.176Z,21.90
2024-04-25T17:44:00.519Z,21.90
2024-04-25T17:46:27.764Z,21.90
2024-04-25T17:48:55.218Z,21.80
2024-04-25T17:51:23.038Z,21.70
2024-04-25T17:53:50.667Z,21.70
2024-04-25T17:56:20.587Z,21.60
2024-04-25T17:58:47.776Z,21.60
2024-04-25T18:01:14.954Z,21.60
2024-04-25T18:03:42.123Z,21.60
2024-04-25T18:06:10.403Z,21.60
2024-04-25T18:08:37.943Z,21.60
2024-04-25T18:11:05.478Z,21.60
2024-04-25T18:13:35.382Z,21.60
2024-04-25T18:16:02.776Z,21.60
2024-04-25T18:18:30.214Z,21.50
2024-04-25T18:20:57.467Z,21.60
2024-04-25T18:23:24.696Z,21.60
2024-04-25T18:25:51.859Z,21.50
2024-04-25T18:28:21.955Z,21.60
2024-04-25T18:30:52.041Z,21.60
2024-04-25T18:33:19.363Z,21.70
2024-04-25T18:35:46.791Z,21.70
2024-04-25T18:38:14.038Z,21.70
2024-04-25T18:40:41.160Z,21.70
2024-04-25T18:43:08.715Z,21.80
2024-04-25T18:45:35.900Z,21.80
2024-04-25T18:48:07.072Z,21.80
2024-04-25T18:50:35.715Z,21.80
2024-04-25T18:53:02.916Z,21.80
2024-04-25T18:55:30.077Z,21.70
2024-04-25T18:57:57.349Z,21.60
2024-04-25T19:00:24.783Z,21.50
2024-04-25T19:02:52.080Z,21.50
2024-04-25T19:05:21.922Z,21.50
2024-04-25T19:07:49.078Z,21.50
2024-04-25T19:10:16.220Z,21.40
2024-04-25T19:12:43.537Z,21.50
2024-04-25T19:15:10.772Z,21.40
2024-04-25T19:17:38.233Z,21.30
2024-04-25T19:20:06.529Z,21.30
2024-04-25T19:22:36.504Z,21.30
2024-04-25T19:25:03.967Z,21.30
2024-04-25T19:27:31.130Z,21.40
2024-04-25T19:29:58.425Z,21.40
2024-04-25T19:32:26.335Z,21.40
2024-04-25T19:34:55.605Z,21.40
2024-04-25T19:37:23.701Z,21.40
2024-04-25T19:39:56.334Z,21.30
2024-04-25T19:42:23.791Z,21.30
2024-04-25T19:44:52.106Z,21.40
2024-04-25T19:47:19.452Z,21.40
2024-04-25T19:49:46.684Z,21.50
2024-04-25T19:52:14.361Z,21.50
2024-04-25T19:54:41.511Z,21.50
2024-04-25T19:57:11.289Z,21.50
2024-04-25T19:59:42.572Z,21.50
2024-04-25T20:02:09.914Z,21.50
2024-04-25T20:04:37.368Z,21.50
2024-04-25T20:07:04.831Z,21.50
2024-04-25T20:09:32.003Z,21.50
2024-04-25T20:12:01.371Z,21.50
2024-04-25T20:14:31.611Z,21.50
2024-04-25T20:16:59.451Z,21.50
2024-04-25T20:19:45.423Z,21.50
2024-04-25T20:22:12.704Z,21.50
2024-04-25T20:24:43.239Z,21.50
2024-04-25T20:27:10.435Z,21.50
2024-04-25T20:29:40.426Z,21.50
2024-04-25T20:32:07.551Z,21.50
2024-04-25T20:34:38.285Z,21.40
2024-04-25T20:37:06.175Z,21.50
2024-04-25T20:39:33.369Z,21.40
2024-04-25T20:42:00.936Z,21.50
2024-04-25T20:44:28.267Z,21.50
2024-04-25T20:46:58.158Z,21.50
2024-04-25T20:49:26.718Z,21.50
2024-04-25T20:51:54.042Z,21.50
2024-04-25T20:54:21.272Z,21.50
2024-04-25T20:56:48.530Z,21.50
2024-04-25T20:59:15.768Z,21.50
2024-04-25T21:01:43.018Z,21.50
2024-04-25T21:04:13.363Z,21.50
2024-04-25T21:06:42.506Z,21.50
2024-04-25T21:09:11.467Z,21.50
2024-04-25T21:11:39.414Z,21.50
2024-04-25T21:14:06.930Z,21.50
2024-04-25T21:16:40.444Z,21.50
2024-04-25T21:19:07.919Z,21.50
2024-04-25T21:21:38.036Z,21.50
2024-04-25T21:24:05.667Z,21.50
2024-04-25T21:26:32.851Z,21.50
2024-04-25T21:29:00.205Z,21.50
2024-04-25T21:31:27.357Z,21.50
2024-04-25T21:33:54.732Z,21.50
2024-04-25T21:36:21.924Z,21.50
2024-04-25T21:38:53.125Z,21.50
2024-04-25T21:41:21.137Z,21.50
2024-04-25T21:43:48.743Z,21.50
2024-04-25T21:46:18.651Z,21.50
2024-04-25T21:48:48.995Z,21.50
2024-04-25T21:51:18.939Z,21.50
2024-04-25T21:53:46.336Z,21.50
2024-04-25T21:56:16.296Z,21.50
2024-04-25T21:58:43.726Z,21.50
2024-04-25T22:01:11.201Z,21.50
2024-04-25T22:03:40.278Z,21.50
2024-04-25T22:06:08.211Z,21.50
2024-04-25T22:08:36.391Z,21.50
2024-04-25T22:11:03.954Z,21.50
2024-04-25T22:13:34.702Z,21.50
2024-04-25T22:16:02.759Z,21.50
2024-04-25T22:18:30.250Z,21.50
2024-04-25T22:20:57.648Z,21.50
2024-04-25T22:23:25.005Z,21.50
2024-04-25T22:25:52.267Z,21.50
2024-04-25T22:28:19.602Z,21.50
2024-04-25T22:30:49.612Z,21.50
2024-04-25T22:33:17.487Z,21.50
2024-04-25T22:35:44.752Z,21.60
2024-04-25T22:38:12.087Z,21.50
2024-04-25T22:40:39.365Z,21.50
2024-04-25T22:43:06.595Z,21.50
2024-04-25T22:45:39.256Z,21.50
2024-04-25T22:48:11.747Z,21.50
2024-04-25T22:50:39.348Z,21.50
2024-04-25T22:53:06.524Z,21.50
2024-04-25T22:55:33.792Z,21.50
2024-04-25T22:58:01.055Z,21.50
2024-04-25T23:00:29.044Z,21.50
2024-04-25T23:02:56.382Z,21.50
2024-04-25T23:05:33.854Z,21.50
2024-04-25T23:08:01.402Z,21.50
2024-04-25T23:10:28.703Z,21.50
2024-04-25T23:12:56.789Z,21.50
2024-04-25T23:15:23.970Z,21.50
2024-04-25T23:17:51.339Z,21.50
2024-04-25T23:20:18.756Z,21.60
2024-04-25T23:22:48.559Z,21.60
2024-04-25T23:25:15.927Z,21.50
2024-04-25T23:27:43.642Z,21.60
2024-04-25T23:30:11.347Z,21.60
2024-04-25T23:32:38.594Z,21.50
2024-04-25T23:35:06.799Z,21.50
2024-04-25T23:37:34.357Z,21.60
2024-04-25T23:40:04.918Z,21.50
2024-04-25T23:42:32.388Z,21.60
2024-04-25T23:44:59.745Z,21.60
2024-04-25T23:47:27.262Z,21.60
2024-04-25T23:49:54.495Z,21.60
2024-04-25T23:52:21.784Z,21.60
2024-04-25T23:54:49.169Z,21.60
2024-04-25T23:57:19.054Z,21.60
2024-04-25T23:59:47.005Z,21.60
